This is the latest recevied weather packets stored in our database for station/object eb1ayw-13. If no packets are shown the sender has not sent any weather packets the latest 10 day(s).
| Time | Temp. | Humidity | Pressure | Rain* | Wind** | Luminosity | Snow |
|---|---|---|---|---|---|---|---|
| 1777712457 | 46.11° C | 17% | 1004.6 hPa | - | - | - | - |
| 1777711857 | 44.44° C | 19% | 1005 hPa | - | - | - | - |
| 1777711258 | 44.44° C | 19% | 1005.1 hPa | - | - | - | - |
| 1777710657 | 45° C | 18% | 1005 hPa | - | - | - | - |
| 1777710057 | 42.78° C | 19% | 1005.6 hPa | - | - | - | - |
| 1777709457 | 43.89° C | 19% | 1005.3 hPa | - | - | - | - |
| 1777708857 | 39.44° C | 22% | 1006.4 hPa | - | - | - | - |
| 1777708257 | 43.33° C | 19% | 1005.4 hPa | - | - | - | - |
| 1777707657 | 46.11° C | 17% | 1004.9 hPa | - | - | - | - |
| 1777707057 | 45° C | 17% | 1005.1 hPa | - | - | - | - |
| 1777706457 | 45° C | 17% | 1005.4 hPa | - | - | - | - |
| 1777705857 | 46.67° C | 16% | 1004.6 hPa | - | - | - | - |
| 1777705257 | 45° C | 17% | 1004.8 hPa | - | - | - | - |
| 1777704657 | 47.22° C | 15% | 1004.3 hPa | - | - | - | - |
| 1777704057 | 47.78° C | 15% | 1004.1 hPa | - | - | - | - |
| 1777703457 | 46.67° C | 16% | 1004.4 hPa | - | - | - | - |
| 1777702858 | 48.33° C | 15% | 1004 hPa | - | - | - | - |
| 1777702257 | 46.67° C | 16% | 1004.4 hPa | - | - | - | - |
| 1777701657 | 48.33° C | 15% | 1003.9 hPa | - | - | - | - |
| 1777701057 | 47.78° C | 15% | 1003.9 hPa | - | - | - | - |
| 1777700457 | 42.78° C | 18% | 1005.6 hPa | - | - | - | - |
| 1777699857 | 39.44° C | 20% | 1006.3 hPa | - | - | - | - |
| 1777698657 | 44.44° C | 17% | 1004.9 hPa | - | - | - | - |
| 1777698057 | 47.78° C | 14% | 1004.1 hPa | - | - | - | - |
| 1777697457 | 47.78° C | 14% | 1003.8 hPa | - | - | - | - |
* Rain since midnight (hover to see other rain measurements)
** Current wind speed in m/s (hover to see current wind gust speed)